Terminal Aerodrome Forecast
Issued by NWS Raleigh/Durham, NC

Home | Current Version | Previous Version | Text Only | Print | Product List | Glossary On
Versions: 1 2 3 4 5 6 7 8 9 10 11 12 13
000
FTUS42 KRAH 272329
TAFGSO
TAF
KGSO 272329Z 2800/2824 19008KT P6SM SCT045
     FM280300 20004KT P6SM FEW035 FEW250
     FM281500 13006KT P6SM OVC200=

USA.gov is the U.S. government's official web portal to all federal, state and local government web resources and services.